Time,TemperatureF,DewpointF,PressureIn,WindDirection,WindDirectionDegrees,WindSpeedMPH,WindSpeedGustMPH,Humidity,HourlyPrecipIn,Conditions,Clouds,dailyrainin,SoftwareType,DateUTC
2013-12-06 00:00:00,32.5,32.0,29.87,NNE,22,0.0,-999.0,98,-99.99,,,0.00,Acu-Link.com,2013-12-06 05:00:00,
2013-12-06 00:15:00,32.5,32.0,29.87,NW,315,0.0,-999.0,98,-99.99,,,0.00,Acu-Link.com,2013-12-06 05:15:00,
2013-12-06 00:30:00,33.3,32.8,29.86,NW,315,0.0,-999.0,98,-99.99,,,0.00,Acu-Link.com,2013-12-06 05:30:00,
2013-12-06 00:45:00,33.4,32.9,29.85,SSE,157,0.0,-999.0,98,-99.99,,,0.00,Acu-Link.com,2013-12-06 05:45:00,
2013-12-06 01:00:00,33.8,33.3,29.86,ENE,67,0.0,-999.0,98,-99.99,,,0.00,Acu-Link.com,2013-12-06 06:00:00,
2013-12-06 01:16:00,33.3,32.8,29.86,North,0,0.0,-999.0,98,-99.99,,,0.00,Acu-Link.com,2013-12-06 06:16:00,
2013-12-06 01:31:00,33.1,32.6,29.85,NNE,22,0.0,-999.0,98,-99.99,,,0.00,Acu-Link.com,2013-12-06 06:31:00,
2013-12-06 01:46:00,32.7,32.2,29.84,NNE,22,0.0,-999.0,98,-99.99,,,0.00,Acu-Link.com,2013-12-06 06:46:00,
2013-12-06 02:01:00,32.7,32.2,29.84,East,90,0.0,-999.0,98,-99.99,,,0.00,Acu-Link.com,2013-12-06 07:01:00,
2013-12-06 02:16:00,32.7,32.2,29.83,South,180,0.0,-999.0,98,-99.99,,,0.00,Acu-Link.com,2013-12-06 07:16:00,
2013-12-06 02:32:00,32.9,32.4,29.83,SSW,202,0.0,-999.0,98,-99.99,,,0.00,Acu-Link.com,2013-12-06 07:32:00,
2013-12-06 02:47:00,32.9,32.4,29.83,ESE,112,0.0,-999.0,98,-99.99,,,0.00,Acu-Link.com,2013-12-06 07:47:00,
2013-12-06 03:02:00,32.9,32.4,29.83,North,0,0.0,-999.0,98,-99.99,,,0.00,Acu-Link.com,2013-12-06 08:02:00,
2013-12-06 03:17:00,32.9,32.4,29.83,West,270,0.0,-999.0,98,-99.99,,,0.00,Acu-Link.com,2013-12-06 08:17:00,
2013-12-06 03:32:00,33.4,32.9,29.81,WNW,292,0.0,-999.0,98,-99.99,,,0.00,Acu-Link.com,2013-12-06 08:32:00,
2013-12-06 03:48:00,33.6,33.1,29.82,North,0,0.0,-999.0,98,-99.99,,,0.00,Acu-Link.com,2013-12-06 08:48:00,
2013-12-06 04:03:00,33.4,32.9,29.82,NNE,22,0.0,-999.0,98,-99.99,,,0.00,Acu-Link.com,2013-12-06 09:03:00,
2013-12-06 04:18:00,33.4,32.9,29.83,NNE,22,0.0,-999.0,98,-99.99,,,0.00,Acu-Link.com,2013-12-06 09:18:00,
2013-12-06 04:33:00,33.4,32.9,29.83,ENE,67,0.0,-999.0,98,-99.99,,,0.00,Acu-Link.com,2013-12-06 09:33:00,
2013-12-06 04:48:00,33.6,33.1,29.82,SSE,157,0.0,-999.0,98,-99.99,,,0.01,Acu-Link.com,2013-12-06 09:48:00,
2013-12-06 05:04:00,33.8,33.3,29.82,NNE,22,0.0,-999.0,98,-99.99,,,0.02,Acu-Link.com,2013-12-06 10:04:00,
2013-12-06 05:19:00,34.0,33.5,29.84,ESE,112,0.0,-999.0,98,-99.99,,,0.05,Acu-Link.com,2013-12-06 10:19:00,
2013-12-06 05:34:00,34.3,33.8,29.88,SSW,202,0.0,-999.0,98,-99.99,,,0.06,Acu-Link.com,2013-12-06 10:34:00,
2013-12-06 05:49:00,34.7,34.2,29.90,SSW,202,1.7,-999.0,98,-99.99,,,0.08,Acu-Link.com,2013-12-06 10:49:00,
2013-12-06 06:05:00,34.5,34.0,29.89,NW,315,0.0,-999.0,98,-99.99,,,0.09,Acu-Link.com,2013-12-06 11:05:00,
2013-12-06 06:20:00,34.3,33.8,29.87,NW,315,0.0,-999.0,98,-99.99,,,0.10,Acu-Link.com,2013-12-06 11:20:00,
2013-12-06 06:35:00,34.3,33.8,29.86,NW,315,0.0,-999.0,98,-99.99,,,0.11,Acu-Link.com,2013-12-06 11:35:00,
2013-12-06 06:50:00,35.1,34.6,29.86,NE,45,0.0,-999.0,98,-99.99,,,0.12,Acu-Link.com,2013-12-06 11:50:00,
2013-12-06 07:05:00,34.9,34.4,29.86,NW,315,0.0,-999.0,98,-99.99,,,0.12,Acu-Link.com,2013-12-06 12:05:00,
2013-12-06 07:21:00,34.9,34.4,29.88,NW,315,0.0,-999.0,98,-99.99,,,0.12,Acu-Link.com,2013-12-06 12:21:00,
2013-12-06 07:36:00,34.9,34.4,29.86,WNW,292,0.0,-999.0,98,-99.99,,,0.12,Acu-Link.com,2013-12-06 12:36:00,
2013-12-06 07:51:00,35.4,34.9,29.88,East,90,0.0,-999.0,98,-99.99,,,0.13,Acu-Link.com,2013-12-06 12:51:00,
2013-12-06 08:06:00,35.4,34.9,29.88,WNW,292,0.0,-999.0,98,-99.99,,,0.16,Acu-Link.com,2013-12-06 13:06:00,
2013-12-06 08:21:00,35.8,35.3,29.93,WNW,292,0.0,-999.0,98,-99.99,,,0.20,Acu-Link.com,2013-12-06 13:21:00,
2013-12-06 08:37:00,37.6,37.1,29.93,NW,315,3.2,-999.0,98,-99.99,,,0.22,Acu-Link.com,2013-12-06 13:37:00,
2013-12-06 08:52:00,38.3,37.8,29.92,WNW,292,1.7,-999.0,98,-99.99,,,0.22,Acu-Link.com,2013-12-06 13:52:00,
2013-12-06 09:07:00,38.7,38.2,29.92,WNW,292,0.0,-999.0,98,-99.99,,,0.23,Acu-Link.com,2013-12-06 14:07:00,
2013-12-06 09:23:00,39.0,38.5,29.92,West,270,0.0,-999.0,98,-99.99,,,0.23,Acu-Link.com,2013-12-06 14:23:00,
2013-12-06 09:38:00,39.4,38.9,29.92,SSW,202,6.3,-999.0,98,-99.99,,,0.23,Acu-Link.com,2013-12-06 14:38:00,
2013-12-06 09:53:00,39.4,38.9,29.96,WNW,292,0.0,-999.0,98,-99.99,,,0.23,Acu-Link.com,2013-12-06 14:53:00,
2013-12-06 10:08:00,38.7,38.2,29.96,West,270,0.0,-999.0,98,-99.99,,,0.23,Acu-Link.com,2013-12-06 15:08:00,
2013-12-06 10:23:00,37.9,37.4,29.96,West,270,0.0,-999.0,98,-99.99,,,0.23,Acu-Link.com,2013-12-06 15:23:00,
2013-12-06 10:39:00,38.1,37.6,29.93,ENE,67,0.0,-999.0,98,-99.99,,,0.23,Acu-Link.com,2013-12-06 15:39:00,
2013-12-06 10:54:00,39.2,38.7,29.93,South,180,1.1,-999.0,98,-99.99,,,0.23,Acu-Link.com,2013-12-06 15:54:00,
2013-12-06 11:09:00,39.9,39.4,29.92,SW,225,1.7,-999.0,98,-99.99,,,0.23,Acu-Link.com,2013-12-06 16:09:00,
2013-12-06 11:25:00,40.6,36.2,29.92,West,270,2.2,-999.0,84,-99.99,,,0.23,Acu-Link.com,2013-12-06 16:25:00,
2013-12-06 11:40:00,40.8,34.8,29.90,NE,45,1.7,-999.0,79,-99.99,,,0.23,Acu-Link.com,2013-12-06 16:40:00,
2013-12-06 11:55:00,40.5,32.2,29.91,West,270,2.7,-999.0,72,-99.99,,,0.23,Acu-Link.com,2013-12-06 16:55:00,
2013-12-06 12:10:00,40.8,31.4,29.91,South,180,4.7,-999.0,69,-99.99,,,0.23,Acu-Link.com,2013-12-06 17:10:00,
2013-12-06 12:25:00,40.5,33.2,29.92,NW,315,3.2,-999.0,75,-99.99,,,0.23,Acu-Link.com,2013-12-06 17:25:00,
2013-12-06 12:41:00,40.6,32.3,29.93,NW,315,3.2,-999.0,72,-99.99,,,0.23,Acu-Link.com,2013-12-06 17:41:00,
2013-12-06 12:56:00,40.3,33.3,29.94,WNW,292,4.2,-999.0,76,-99.99,,,0.23,Acu-Link.com,2013-12-06 17:56:00,
2013-12-06 13:11:00,40.3,34.9,29.93,North,0,5.3,-999.0,81,-99.99,,,0.23,Acu-Link.com,2013-12-06 18:11:00,
2013-12-06 13:26:00,39.9,33.0,29.93,NW,315,3.2,-999.0,76,-99.99,,,0.23,Acu-Link.com,2013-12-06 18:26:00,
2013-12-06 13:41:00,39.9,32.6,29.92,WNW,292,3.2,-999.0,75,-99.99,,,0.23,Acu-Link.com,2013-12-06 18:41:00,
2013-12-06 13:57:00,40.1,32.5,29.93,West,270,3.2,-999.0,74,-99.99,,,0.23,Acu-Link.com,2013-12-06 18:57:00,
2013-12-06 14:12:00,39.7,32.4,29.92,WNW,292,2.7,-999.0,75,-99.99,,,0.23,Acu-Link.com,2013-12-06 19:12:00,
2013-12-06 14:27:00,39.7,30.7,29.92,WNW,292,2.7,-999.0,70,-99.99,,,0.23,Acu-Link.com,2013-12-06 19:27:00,
2013-12-06 14:42:00,39.2,32.3,29.94,SW,225,2.2,-999.0,76,-99.99,,,0.23,Acu-Link.com,2013-12-06 19:42:00,
2013-12-06 14:58:00,38.8,31.6,29.92,West,270,2.7,-999.0,75,-99.99,,,0.23,Acu-Link.com,2013-12-06 19:58:00,
2013-12-06 15:13:00,39.4,29.0,29.93,WNW,292,3.7,-999.0,66,-99.99,,,0.23,Acu-Link.com,2013-12-06 20:13:00,
2013-12-06 15:28:00,39.4,30.1,29.92,NNW,337,1.1,-999.0,69,-99.99,,,0.23,Acu-Link.com,2013-12-06 20:28:00,
2013-12-06 15:43:00,39.2,30.9,29.93,WSW,247,1.7,-999.0,72,-99.99,,,0.23,Acu-Link.com,2013-12-06 20:43:00,
2013-12-06 15:58:00,38.1,31.9,29.93,West,270,0.0,-999.0,78,-99.99,,,0.23,Acu-Link.com,2013-12-06 20:58:00,
2013-12-06 16:14:00,37.2,29.7,29.93,West,270,0.0,-999.0,74,-99.99,,,0.23,Acu-Link.com,2013-12-06 21:14:00,
2013-12-06 16:29:00,37.4,28.5,29.95,West,270,1.7,-999.0,70,-99.99,,,0.23,Acu-Link.com,2013-12-06 21:29:00,
2013-12-06 16:44:00,37.4,29.2,29.95,WNW,292,2.2,-999.0,72,-99.99,,,0.23,Acu-Link.com,2013-12-06 21:44:00,
2013-12-06 16:59:00,37.2,29.0,29.93,WNW,292,1.7,-999.0,72,-99.99,,,0.23,Acu-Link.com,2013-12-06 21:59:00,
2013-12-06 17:14:00,37.0,29.5,29.93,WNW,292,1.7,-999.0,74,-99.99,,,0.23,Acu-Link.com,2013-12-06 22:14:00,
2013-12-06 17:30:00,36.7,29.9,29.94,WNW,292,0.0,-999.0,76,-99.99,,,0.23,Acu-Link.com,2013-12-06 22:30:00,
2013-12-06 17:45:00,36.3,32.2,29.94,NW,315,0.0,-999.0,85,-99.99,,,0.23,Acu-Link.com,2013-12-06 22:45:00,
2013-12-06 18:00:00,35.6,31.3,29.94,SSW,202,0.0,-999.0,84,-99.99,,,0.23,Acu-Link.com,2013-12-06 23:00:00,
2013-12-06 18:16:00,35.6,30.7,29.94,SW,225,0.0,-999.0,82,-99.99,,,0.23,Acu-Link.com,2013-12-06 23:16:00,
2013-12-06 18:31:00,35.2,31.7,29.97,NW,315,0.0,-999.0,87,-99.99,,,0.23,Acu-Link.com,2013-12-06 23:31:00,
2013-12-06 18:46:00,34.9,32.3,29.95,NW,315,0.0,-999.0,90,-99.99,,,0.23,Acu-Link.com,2013-12-06 23:46:00,
2013-12-06 19:01:00,34.3,32.8,29.97,NW,315,0.0,-999.0,94,-99.99,,,0.23,Acu-Link.com,2013-12-07 00:01:00,
2013-12-06 19:16:00,34.2,33.7,29.96,NW,315,0.0,-999.0,98,-99.99,,,0.23,Acu-Link.com,2013-12-07 00:16:00,
2013-12-06 19:31:00,34.0,33.5,29.97,South,180,0.0,-999.0,98,-99.99,,,0.23,Acu-Link.com,2013-12-07 00:31:00,
2013-12-06 19:46:00,34.0,33.5,29.98,WNW,292,0.0,-999.0,98,-99.99,,,0.23,Acu-Link.com,2013-12-07 00:46:00,
2013-12-06 20:02:00,33.8,33.3,29.97,SE,135,0.0,-999.0,98,-99.99,,,0.23,Acu-Link.com,2013-12-07 01:02:00,
2013-12-06 20:17:00,33.8,33.3,29.99,NNW,337,0.0,-999.0,98,-99.99,,,0.23,Acu-Link.com,2013-12-07 01:17:00,
2013-12-06 20:32:00,33.8,33.3,29.97,SW,225,0.0,-999.0,98,-99.99,,,0.23,Acu-Link.com,2013-12-07 01:32:00,
2013-12-06 20:47:00,33.4,32.9,29.98,West,270,0.0,-999.0,98,-99.99,,,0.23,Acu-Link.com,2013-12-07 01:47:00,
2013-12-06 21:03:00,33.4,32.9,29.99,NW,315,0.0,-999.0,98,-99.99,,,0.23,Acu-Link.com,2013-12-07 02:03:00,
2013-12-06 21:18:00,33.4,32.9,30.01,NNE,22,0.0,-999.0,98,-99.99,,,0.23,Acu-Link.com,2013-12-07 02:18:00,
2013-12-06 21:33:00,33.8,30.9,30.01,WSW,247,0.0,-999.0,89,-99.99,,,0.23,Acu-Link.com,2013-12-07 02:33:00,
2013-12-06 21:48:00,34.0,26.9,30.02,ENE,67,0.0,-999.0,75,-99.99,,,0.23,Acu-Link.com,2013-12-07 02:48:00,
2013-12-06 22:03:00,34.7,26.3,30.02,NW,315,1.1,-999.0,71,-99.99,,,0.23,Acu-Link.com,2013-12-07 03:03:00,
2013-12-06 22:19:00,34.5,28.4,30.00,South,180,1.7,-999.0,78,-99.99,,,0.23,Acu-Link.com,2013-12-07 03:19:00,
2013-12-06 22:34:00,34.2,29.0,30.00,NW,315,1.1,-999.0,81,-99.99,,,0.23,Acu-Link.com,2013-12-07 03:34:00,
2013-12-06 22:49:00,34.3,25.2,29.99,NE,45,1.7,-999.0,69,-99.99,,,0.23,Acu-Link.com,2013-12-07 03:49:00,
2013-12-06 23:04:00,34.5,24.7,30.00,WNW,292,3.7,-999.0,67,-99.99,,,0.23,Acu-Link.com,2013-12-07 04:04:00,
2013-12-06 23:19:00,34.2,26.8,30.00,NW,315,3.7,-999.0,74,-99.99,,,0.23,Acu-Link.com,2013-12-07 04:19:00,
2013-12-06 23:35:00,34.2,24.4,30.00,NW,315,3.2,-999.0,67,-99.99,,,0.23,Acu-Link.com,2013-12-07 04:35:00,
2013-12-06 23:50:00,34.3,23.8,29.99,WNW,292,1.7,-999.0,65,-99.99,,,0.23,Acu-Link.com,2013-12-07 04:50:00,